CD46 weather

North Arrow Heliport
Fort Collins, Colorado, United States

Public forecast

Using degrees Fahrenheit for public forecast. Weather courtesy of forecast.io.

METAR (pilot weather report)

Closest report is Northern Colorado Regional Airport, 8.5 nm (15.8 km) SSE. Retrieved 2019/08/21 22:56 UTC (37 minutes ago):

KFNL 212256Z AUTO 14009KT 10SM SCT110 26/14 A3012 RMK AO2 LTG DSNT SW SLP138 T02610139

TAF (pilot weather forecast)

Closest forecast is Cheyenne Regional Jerry Olson Field, 35.6 nm (65.8 km) NNE. Retrieved 2019/08/21 18:39 UTC (5 hours ago):

TAF KCYS 211736Z 2118/2218 18008KT P6SM BKN035 FM212100 15010KT P6SM VCTS SCT040CB BKN150 FM220200 08012KT P6SM BKN080 FM220600 18007KT P6SM BKN015 FM221500 18012KT P6SM SCT025